createdAt,value
2022-10-31T00:01:30.078Z,2.23
2022-10-31T00:03:57.302Z,2.30
2022-10-31T00:06:24.620Z,2.37
2022-10-31T00:09:00.250Z,2.37
2022-10-31T00:11:28.038Z,2.70
2022-10-31T00:13:55.362Z,2.63
2022-10-31T00:16:24.476Z,2.00
2022-10-31T00:18:53.232Z,2.50
2022-10-31T00:21:20.807Z,4.70
2022-10-31T00:23:48.132Z,3.53
2022-10-31T00:26:15.727Z,3.73
2022-10-31T00:28:43.172Z,4.70
2022-10-31T00:31:12.055Z,3.13
2022-10-31T00:33:40.205Z,4.23
2022-10-31T00:36:08.866Z,3.07
2022-10-31T00:38:35.804Z,2.47
2022-10-31T00:41:02.854Z,2.33
2022-10-31T00:43:29.854Z,3.33
2022-10-31T00:45:56.828Z,2.73
2022-10-31T00:48:23.856Z,3.70
2022-10-31T00:50:50.815Z,2.60
2022-10-31T00:53:17.727Z,3.43
2022-10-31T00:55:44.848Z,3.80
2022-10-31T00:58:11.927Z,3.87
2022-10-31T01:00:38.963Z,3.70
2022-10-31T01:03:06.379Z,5.17
2022-10-31T01:05:33.672Z,6.27
2022-10-31T01:08:01.282Z,6.17
2022-10-31T01:10:28.215Z,4.97
2022-10-31T01:12:55.189Z,3.50
2022-10-31T01:15:23.746Z,2.77
2022-10-31T01:17:51.371Z,5.70
2022-10-31T01:20:19.179Z,4.17
2022-10-31T01:22:46.287Z,9.73
2022-10-31T01:25:13.338Z,7.00
2022-10-31T01:27:40.372Z,7.33
2022-10-31T01:30:07.803Z,6.10
2022-10-31T01:32:35.055Z,5.60
2022-10-31T01:35:02.010Z,6.07
2022-10-31T01:37:29.007Z,6.90
2022-10-31T01:39:55.959Z,5.37
2022-10-31T01:42:24.470Z,9.67
2022-10-31T01:44:54.840Z,16.83
2022-10-31T01:47:38.775Z,9.50
2022-10-31T01:50:12.165Z,5.70
2022-10-31T01:52:43.957Z,11.77
2022-10-31T01:55:29.128Z,17.83
2022-10-31T01:58:03.346Z,7.43
2022-10-31T02:00:30.701Z,14.87
2022-10-31T02:02:57.997Z,14.17
2022-10-31T02:05:29.223Z,12.77
2022-10-31T02:08:26.852Z,13.73
2022-10-31T02:10:54.301Z,13.73
2022-10-31T02:13:23.017Z,13.13
2022-10-31T02:15:55.811Z,10.70
2022-10-31T02:18:24.537Z,10.03
2022-10-31T02:21:15.677Z,10.50
2022-10-31T02:23:47.905Z,9.63
2022-10-31T02:26:36.056Z,10.73
2022-10-31T02:29:56.764Z,10.63
2022-10-31T02:32:54.577Z,14.00
2022-10-31T02:35:28.953Z,13.83
2022-10-31T02:38:03.909Z,15.57
2022-10-31T02:40:44.874Z,13.20
2022-10-31T02:43:50.105Z,10.97
2022-10-31T02:46:50.373Z,10.53
2022-10-31T02:49:27.337Z,10.87
2022-10-31T02:51:54.532Z,10.43
2022-10-31T02:54:24.971Z,9.37
2022-10-31T02:56:58.180Z,9.37
2022-10-31T02:59:26.053Z,9.53
2022-10-31T03:02:24.247Z,7.90
2022-10-31T03:05:05.930Z,7.53
2022-10-31T03:07:51.774Z,7.97
2022-10-31T03:10:26.857Z,8.00
2022-10-31T03:13:05.936Z,6.43
2022-10-31T03:15:40.237Z,7.10
2022-10-31T03:18:16.675Z,6.47
2022-10-31T03:20:48.963Z,5.77
2022-10-31T03:23:19.542Z,7.10
2022-10-31T03:25:49.408Z,6.07
2022-10-31T03:30:52.961Z,7.70
2022-10-31T03:33:25.704Z,6.40
2022-10-31T03:35:56.182Z,7.00
2022-10-31T03:38:23.644Z,6.67
2022-10-31T03:40:53.486Z,6.60
2022-10-31T03:43:33.327Z,5.23
2022-10-31T03:46:00.705Z,6.20
2022-10-31T03:48:28.033Z,6.57
2022-10-31T03:51:23.111Z,6.30
2022-10-31T03:54:12.966Z,6.50
2022-10-31T03:56:53.088Z,6.30
2022-10-31T03:59:30.681Z,6.33
2022-10-31T04:02:02.103Z,6.03
2022-10-31T04:04:30.796Z,6.00
2022-10-31T04:07:00.973Z,5.13
2022-10-31T04:09:30.842Z,6.27
2022-10-31T04:12:00.417Z,5.63
2022-10-31T04:14:30.930Z,5.57
2022-10-31T04:16:57.967Z,5.07
2022-10-31T04:19:24.994Z,5.83
2022-10-31T04:21:51.931Z,3.97
2022-10-31T04:24:18.919Z,4.40
2022-10-31T04:26:45.848Z,3.77
2022-10-31T04:29:12.777Z,3.70
2022-10-31T04:31:39.730Z,3.50
2022-10-31T04:34:06.668Z,2.90
2022-10-31T04:36:33.712Z,3.30
2022-10-31T04:39:00.676Z,3.00
2022-10-31T04:41:27.621Z,3.33
2022-10-31T04:43:55.110Z,3.13
2022-10-31T04:46:22.109Z,2.40
2022-10-31T04:48:49.467Z,2.40
2022-10-31T04:51:16.582Z,2.40
2022-10-31T04:53:43.486Z,2.30
2022-10-31T04:56:10.402Z,2.63
2022-10-31T04:58:37.327Z,1.83
2022-10-31T05:01:04.494Z,2.40
2022-10-31T05:03:31.563Z,2.40
2022-10-31T05:05:58.474Z,2.10
2022-10-31T05:08:25.401Z,3.07
2022-10-31T05:10:53.018Z,1.63
2022-10-31T05:15:52.033Z,1.50
2022-10-31T05:18:18.973Z,1.53
2022-10-31T05:20:45.967Z,1.63
2022-10-31T05:23:13.169Z,1.80
2022-10-31T05:25:41.624Z,1.53
2022-10-31T05:28:08.894Z,2.00
2022-10-31T05:30:36.071Z,3.07
2022-10-31T05:33:03.305Z,1.90
2022-10-31T05:35:32.636Z,1.77
2022-10-31T05:38:00.108Z,1.37
2022-10-31T05:40:28.450Z,1.60
2022-10-31T05:42:57.232Z,1.80
2022-10-31T05:45:24.877Z,1.90
2022-10-31T05:47:57.457Z,1.80
2022-10-31T05:50:26.840Z,1.60
2022-10-31T05:53:02.134Z,1.63
2022-10-31T05:55:29.941Z,1.60
2022-10-31T05:57:57.222Z,1.57
2022-10-31T06:00:25.978Z,2.00
2022-10-31T06:03:19.084Z,2.43
2022-10-31T06:05:49.328Z,2.20
2022-10-31T06:08:19.501Z,2.07
2022-10-31T06:10:46.483Z,1.67
2022-10-31T06:13:13.504Z,1.40
2022-10-31T06:15:40.737Z,1.60
2022-10-31T06:18:07.735Z,1.57
2022-10-31T06:20:35.054Z,2.80
2022-10-31T06:23:02.877Z,3.00
2022-10-31T06:25:30.189Z,2.70
2022-10-31T06:27:57.897Z,2.53
2022-10-31T06:30:25.248Z,2.80
2022-10-31T06:32:52.344Z,2.50
2022-10-31T06:35:19.459Z,2.77
2022-10-31T06:37:56.308Z,2.90
2022-10-31T06:40:23.842Z,2.20
2022-10-31T06:43:01.182Z,1.83
2022-10-31T06:45:28.463Z,2.00
2022-10-31T06:48:15.903Z,2.00
2022-10-31T06:50:43.196Z,2.40
2022-10-31T06:55:42.927Z,2.70
2022-10-31T06:58:11.463Z,3.00
2022-10-31T07:00:38.708Z,3.13
2022-10-31T07:03:08.332Z,2.90
2022-10-31T07:05:35.285Z,1.93
2022-10-31T07:08:05.785Z,2.03
2022-10-31T07:10:39.050Z,2.30
2022-10-31T07:13:14.308Z,2.33
2022-10-31T07:15:43.501Z,2.50
2022-10-31T07:18:12.483Z,2.87
2022-10-31T07:20:39.417Z,2.10
2022-10-31T07:23:06.813Z,2.20
2022-10-31T07:25:34.082Z,2.13
2022-10-31T07:28:01.427Z,2.03
2022-10-31T07:30:28.846Z,2.53
2022-10-31T07:32:56.494Z,2.70
2022-10-31T07:35:26.383Z,3.20
2022-10-31T07:37:54.056Z,11.40
2022-10-31T07:40:22.166Z,5.20
2022-10-31T07:42:51.361Z,3.00
2022-10-31T07:45:20.713Z,2.77
2022-10-31T07:47:54.548Z,2.07
2022-10-31T07:50:29.621Z,2.77
2022-10-31T07:53:11.247Z,3.00
2022-10-31T07:55:38.533Z,3.60
2022-10-31T07:58:11.034Z,2.80
2022-10-31T08:00:39.869Z,2.70
2022-10-31T08:03:09.669Z,2.70
2022-10-31T08:05:36.860Z,2.63
2022-10-31T08:08:05.460Z,3.30
2022-10-31T08:10:33.541Z,2.33
2022-10-31T08:13:03.100Z,3.17
2022-10-31T08:15:30.338Z,3.27
2022-10-31T08:17:57.908Z,3.73
2022-10-31T08:20:25.296Z,3.40
2022-10-31T08:23:00.781Z,3.40
2022-10-31T08:25:32.270Z,4.33
2022-10-31T08:28:02.982Z,3.30
2022-10-31T08:30:33.356Z,2.10
2022-10-31T08:33:17.968Z,2.33
2022-10-31T08:35:45.313Z,2.08
2022-10-31T08:38:13.753Z,2.55
2022-10-31T08:40:40.970Z,2.70
2022-10-31T08:43:16.139Z,2.15
2022-10-31T08:45:44.573Z,2.20
2022-10-31T08:48:13.985Z,2.15
2022-10-31T08:50:41.451Z,3.08
2022-10-31T08:53:16.622Z,3.03
2022-10-31T08:55:45.220Z,3.05
2022-10-31T08:58:14.969Z,2.90
2022-10-31T09:00:42.153Z,2.90
2022-10-31T09:03:15.192Z,3.67
2022-10-31T09:05:42.817Z,3.05
2022-10-31T09:08:15.730Z,2.63
2022-10-31T09:10:44.328Z,3.17
2022-10-31T09:13:21.808Z,3.42
2022-10-31T09:15:50.305Z,2.88
2022-10-31T09:18:19.930Z,2.95
2022-10-31T09:20:48.616Z,2.40
2022-10-31T09:23:21.076Z,2.83
2022-10-31T09:25:50.633Z,2.60
2022-10-31T09:28:23.174Z,1.88
2022-10-31T09:30:52.492Z,2.05
2022-10-31T09:33:20.332Z,3.50
2022-10-31T09:35:47.452Z,2.40
2022-10-31T09:38:17.059Z,2.20
2022-10-31T09:40:48.179Z,2.20
2022-10-31T09:43:23.979Z,1.48
2022-10-31T09:46:09.760Z,1.90
2022-10-31T09:48:48.234Z,1.40
2022-10-31T09:51:21.002Z,1.70
2022-10-31T09:54:08.011Z,1.45
2022-10-31T09:56:36.540Z,1.90
2022-10-31T09:59:06.526Z,1.63
2022-10-31T10:01:48.694Z,1.50
2022-10-31T10:04:25.774Z,1.80
2022-10-31T10:06:53.513Z,1.50
2022-10-31T10:09:26.143Z,1.45
2022-10-31T10:12:17.213Z,1.20
2022-10-31T10:15:01.740Z,2.08
2022-10-31T10:18:04.160Z,2.03
2022-10-31T10:20:41.950Z,2.63
2022-10-31T10:23:33.590Z,2.45
2022-10-31T10:26:13.303Z,3.50
2022-10-31T10:28:44.784Z,2.70
2022-10-31T10:31:36.181Z,2.45
2022-10-31T10:34:23.866Z,1.83
2022-10-31T10:37:03.811Z,1.73
2022-10-31T10:39:46.257Z,1.48
2022-10-31T10:42:34.542Z,1.65
2022-10-31T10:45:35.360Z,1.33
2022-10-31T10:48:43.098Z,1.77
2022-10-31T10:51:39.077Z,1.33
2022-10-31T10:54:34.680Z,1.48
2022-10-31T10:57:25.910Z,1.80
2022-10-31T10:59:53.194Z,1.40
2022-10-31T11:02:32.828Z,1.50
2022-10-31T11:05:02.424Z,1.58
2022-10-31T11:07:40.651Z,1.30
2022-10-31T11:10:15.082Z,1.40
2022-10-31T11:12:58.243Z,1.48
2022-10-31T11:15:27.265Z,1.10
2022-10-31T11:17:56.269Z,1.23
2022-10-31T11:20:37.479Z,1.20
2022-10-31T11:23:21.439Z,1.25
2022-10-31T11:25:58.267Z,1.13
2022-10-31T11:28:26.218Z,1.20
2022-10-31T11:30:58.951Z,0.90
2022-10-31T11:33:37.544Z,1.08
2022-10-31T11:36:25.646Z,1.00
2022-10-31T11:38:53.856Z,1.38
2022-10-31T11:41:28.937Z,1.30
2022-10-31T11:44:00.310Z,1.48
2022-10-31T11:46:35.709Z,0.90
2022-10-31T11:49:03.250Z,1.20
2022-10-31T11:51:33.693Z,0.90
2022-10-31T11:54:03.576Z,0.98
2022-10-31T11:56:41.988Z,0.82
2022-10-31T11:59:39.909Z,0.80
2022-10-31T12:02:19.968Z,0.70
2022-10-31T12:04:57.851Z,0.75
2022-10-31T12:07:25.452Z,0.55
2022-10-31T12:09:52.583Z,0.98
2022-10-31T12:12:41.518Z,0.60
2022-10-31T12:15:25.467Z,0.65
2022-10-31T12:18:07.696Z,0.63
2022-10-31T12:20:59.387Z,0.60
2022-10-31T12:23:45.056Z,0.75
2022-10-31T12:26:18.156Z,0.57
2022-10-31T12:28:55.340Z,0.70
2022-10-31T12:31:31.198Z,0.50
2022-10-31T12:34:19.587Z,0.70
2022-10-31T12:37:18.588Z,0.50
2022-10-31T12:39:45.534Z,0.90
2022-10-31T12:42:30.567Z,0.55
2022-10-31T12:45:09.934Z,0.63
2022-10-31T12:48:24.205Z,0.60
2022-10-31T12:51:23.701Z,0.50
2022-10-31T12:54:02.601Z,0.90
2022-10-31T12:56:43.922Z,1.00
2022-10-31T12:59:28.594Z,0.70
2022-10-31T13:02:10.500Z,0.80
2022-10-31T13:04:52.806Z,1.02
2022-10-31T13:07:29.801Z,1.13
2022-10-31T13:10:05.825Z,0.88
2022-10-31T13:12:37.483Z,0.70
2022-10-31T13:15:28.659Z,0.57
2022-10-31T13:18:05.261Z,0.60
2022-10-31T13:20:39.692Z,0.85
2022-10-31T13:23:49.353Z,0.65
2022-10-31T13:26:33.863Z,0.60
2022-10-31T13:29:10.418Z,0.60
2022-10-31T13:31:42.576Z,0.60
2022-10-31T13:34:36.396Z,0.80
2022-10-31T13:37:37.716Z,0.57
2022-10-31T13:40:19.910Z,0.55
2022-10-31T13:42:56.466Z,0.73
2022-10-31T13:45:25.685Z,0.70
2022-10-31T13:48:01.877Z,0.60
2022-10-31T13:50:34.063Z,0.82
2022-10-31T13:53:19.444Z,0.60
2022-10-31T13:55:51.416Z,0.60
2022-10-31T13:58:30.556Z,0.70
2022-10-31T14:01:18.523Z,0.80
2022-10-31T14:04:12.307Z,0.57
2022-10-31T14:06:46.833Z,0.90
2022-10-31T14:09:30.721Z,0.70
2022-10-31T14:12:01.022Z,0.73
2022-10-31T14:14:34.560Z,0.90
2022-10-31T14:17:02.237Z,0.77
2022-10-31T14:19:29.446Z,0.90
2022-10-31T14:21:56.465Z,0.63
2022-10-31T14:24:26.212Z,1.08
2022-10-31T14:27:05.058Z,0.60
2022-10-31T14:29:34.741Z,0.93
2022-10-31T14:32:11.714Z,1.10
2022-10-31T14:34:43.631Z,0.70
2022-10-31T14:37:29.047Z,0.55
2022-10-31T14:40:17.745Z,0.70
2022-10-31T14:42:57.443Z,0.90
2022-10-31T14:46:10.077Z,0.70
2022-10-31T14:49:19.807Z,0.90
2022-10-31T14:51:49.561Z,0.80
2022-10-31T14:54:21.269Z,0.60
2022-10-31T14:56:56.412Z,0.55
2022-10-31T14:59:29.265Z,0.80
2022-10-31T15:02:03.017Z,1.00
2022-10-31T15:04:33.608Z,0.80
2022-10-31T15:07:13.522Z,0.70
2022-10-31T15:09:44.482Z,0.57
2022-10-31T15:12:25.410Z,0.93
2022-10-31T15:14:53.321Z,0.80
2022-10-31T15:17:21.692Z,0.93
2022-10-31T15:19:48.738Z,0.98
2022-10-31T15:22:18.755Z,1.00
2022-10-31T15:24:46.765Z,1.00
2022-10-31T15:27:16.859Z,0.80
2022-10-31T15:29:57.469Z,0.70
2022-10-31T15:32:29.700Z,0.70
2022-10-31T15:34:58.200Z,0.85
2022-10-31T15:37:27.547Z,0.70
2022-10-31T15:39:54.837Z,0.60
2022-10-31T15:42:34.533Z,0.82
2022-10-31T15:45:06.450Z,0.70
2022-10-31T15:47:34.757Z,0.85
2022-10-31T15:50:04.036Z,0.70
2022-10-31T15:52:48.482Z,0.90
2022-10-31T15:55:26.198Z,0.60
2022-10-31T15:57:56.456Z,0.68
2022-10-31T16:00:39.504Z,0.77
2022-10-31T16:03:19.499Z,0.80
2022-10-31T16:05:46.578Z,0.60
2022-10-31T16:08:30.300Z,0.85
2022-10-31T16:11:04.158Z,0.90
2022-10-31T16:13:34.611Z,0.70
2022-10-31T16:19:02.632Z,0.90
2022-10-31T16:21:38.412Z,0.90
2022-10-31T16:24:30.510Z,0.70
2022-10-31T16:27:16.729Z,0.95
2022-10-31T16:29:46.990Z,0.95
2022-10-31T16:32:33.503Z,1.20
2022-10-31T16:35:10.828Z,0.90
2022-10-31T16:37:41.980Z,7.35
2022-10-31T16:40:11.657Z,1.40
2022-10-31T16:42:38.637Z,16.75
2022-10-31T16:45:08.004Z,1.13
2022-10-31T16:47:35.064Z,1.70
2022-10-31T16:50:02.272Z,1.07
2022-10-31T16:52:38.053Z,0.88
2022-10-31T16:55:14.100Z,0.90
2022-10-31T16:57:48.412Z,1.00
2022-10-31T17:00:20.898Z,1.13
2022-10-31T17:02:51.156Z,1.10
2022-10-31T17:05:20.054Z,1.40
2022-10-31T17:07:47.295Z,1.20
2022-10-31T17:10:15.800Z,1.20
2022-10-31T17:12:47.322Z,1.27
2022-10-31T17:15:22.654Z,1.17
2022-10-31T17:17:49.603Z,1.13
2022-10-31T17:20:24.191Z,0.87
2022-10-31T17:22:51.373Z,1.07
2022-10-31T17:25:22.852Z,1.03
2022-10-31T17:27:51.205Z,0.80
2022-10-31T17:30:20.011Z,0.80
2022-10-31T17:32:47.883Z,1.00
2022-10-31T17:35:16.008Z,0.70
2022-10-31T17:37:44.325Z,1.30
2022-10-31T17:40:12.914Z,1.10
2022-10-31T17:42:40.150Z,1.33
2022-10-31T17:45:08.557Z,0.90
2022-10-31T17:47:36.213Z,0.90
2022-10-31T17:50:03.234Z,1.10
2022-10-31T17:52:30.154Z,0.97
2022-10-31T17:54:57.094Z,1.27
2022-10-31T17:57:24.028Z,1.20
2022-10-31T17:59:51.022Z,1.33
2022-10-31T18:02:18.093Z,1.27
2022-10-31T18:04:45.105Z,1.10
2022-10-31T18:07:12.073Z,1.33
2022-10-31T18:09:39.028Z,1.13
2022-10-31T18:12:06.110Z,0.90
2022-10-31T18:14:33.277Z,1.07
2022-10-31T18:17:00.293Z,0.90
2022-10-31T18:19:27.294Z,1.00
2022-10-31T18:21:54.232Z,0.93
2022-10-31T18:24:21.895Z,0.83
2022-10-31T18:26:48.983Z,0.80
2022-10-31T18:29:16.197Z,0.90
2022-10-31T18:31:43.646Z,0.90
2022-10-31T18:34:10.565Z,0.73
2022-10-31T18:36:37.542Z,1.00
2022-10-31T18:39:04.555Z,0.90
2022-10-31T18:41:31.518Z,0.70
2022-10-31T18:44:00.276Z,1.20
2022-10-31T18:46:29.521Z,0.77
2022-10-31T18:48:56.481Z,0.73
2022-10-31T18:51:24.198Z,1.33
2022-10-31T18:54:01.568Z,1.00
2022-10-31T18:56:31.806Z,1.50
2022-10-31T18:59:02.053Z,1.20
2022-10-31T19:01:30.356Z,0.80
2022-10-31T19:03:58.970Z,1.37
2022-10-31T19:06:27.262Z,1.20
2022-10-31T19:09:02.110Z,1.10
2022-10-31T19:11:31.437Z,1.20
2022-10-31T19:13:58.562Z,1.03
2022-10-31T19:16:25.585Z,1.20
2022-10-31T19:18:57.233Z,1.60
2022-10-31T19:21:24.698Z,1.10
2022-10-31T19:23:53.628Z,1.20
2022-10-31T19:26:20.643Z,1.20
2022-10-31T19:28:47.775Z,1.53
2022-10-31T19:31:14.725Z,1.40
2022-10-31T19:33:41.827Z,1.10
2022-10-31T19:36:11.561Z,1.60
2022-10-31T19:38:41.260Z,1.40
2022-10-31T19:41:11.049Z,1.40
2022-10-31T19:43:38.919Z,1.20
2022-10-31T19:46:06.978Z,1.30
2022-10-31T19:48:36.906Z,1.50
2022-10-31T19:51:06.598Z,5.17
2022-10-31T19:53:34.354Z,4.87
2022-10-31T19:56:01.984Z,2.80
2022-10-31T19:58:29.169Z,2.60
2022-10-31T20:00:56.250Z,1.93
2022-10-31T20:03:23.702Z,1.10
2022-10-31T20:05:51.413Z,1.13
2022-10-31T20:08:20.369Z,1.30
2022-10-31T20:11:03.774Z,1.50
2022-10-31T20:13:31.992Z,1.47
2022-10-31T20:16:06.014Z,1.40
2022-10-31T20:18:33.414Z,1.53
2022-10-31T20:21:09.636Z,1.43
2022-10-31T20:23:37.931Z,1.60
2022-10-31T20:26:05.531Z,1.30
2022-10-31T20:28:33.509Z,1.60
2022-10-31T20:31:01.592Z,2.03
2022-10-31T20:33:28.561Z,2.10
2022-10-31T20:35:55.521Z,1.90
2022-10-31T20:38:22.419Z,1.77
2022-10-31T20:40:49.358Z,1.50
2022-10-31T20:43:16.947Z,1.70
2022-10-31T20:45:43.911Z,1.40
2022-10-31T20:48:10.864Z,1.30
2022-10-31T20:50:40.788Z,1.30
2022-10-31T20:53:07.784Z,1.30
2022-10-31T20:55:34.782Z,1.40
2022-10-31T20:58:01.759Z,1.20
2022-10-31T21:00:28.689Z,1.17
2022-10-31T21:02:55.632Z,1.40
2022-10-31T21:05:22.629Z,1.30
2022-10-31T21:10:21.512Z,1.40
2022-10-31T21:12:48.421Z,1.20
2022-10-31T21:15:15.601Z,1.20
2022-10-31T21:17:43.015Z,1.60
2022-10-31T21:20:10.761Z,2.87
2022-10-31T21:22:38.152Z,3.13
2022-10-31T21:25:05.439Z,4.23
2022-10-31T21:27:32.479Z,3.70
2022-10-31T21:29:59.655Z,3.60
2022-10-31T21:32:26.656Z,3.50
2022-10-31T21:34:53.705Z,2.87
2022-10-31T21:37:20.610Z,2.20
2022-10-31T21:39:50.810Z,3.00
2022-10-31T21:42:21.363Z,3.00
2022-10-31T21:44:52.323Z,2.63
2022-10-31T21:47:19.244Z,1.60
2022-10-31T21:49:46.177Z,1.50
2022-10-31T21:52:13.177Z,1.50
2022-10-31T21:54:40.205Z,1.90
2022-10-31T21:57:07.169Z,1.87
2022-10-31T21:59:34.114Z,1.80
2022-10-31T22:02:01.576Z,1.50
2022-10-31T22:04:29.072Z,1.90
2022-10-31T22:06:56.153Z,1.33
2022-10-31T22:09:23.788Z,2.00
2022-10-31T22:11:50.950Z,1.50
2022-10-31T22:14:17.885Z,1.83
2022-10-31T22:16:45.099Z,1.30
2022-10-31T22:19:13.880Z,1.27
2022-10-31T22:21:49.137Z,1.80
2022-10-31T22:24:17.481Z,1.43
2022-10-31T22:26:44.754Z,1.30
2022-10-31T22:29:14.098Z,1.80
2022-10-31T22:31:42.865Z,1.90
2022-10-31T22:34:10.485Z,1.73
2022-10-31T22:36:38.482Z,2.40
2022-10-31T22:39:07.001Z,2.30
2022-10-31T22:41:36.134Z,2.10
2022-10-31T22:44:05.723Z,1.60
2022-10-31T22:46:36.369Z,1.47
2022-10-31T22:49:10.561Z,1.60
2022-10-31T22:51:39.577Z,1.50
2022-10-31T22:54:11.544Z,3.90
2022-10-31T22:56:39.001Z,6.00
2022-10-31T22:59:06.352Z,3.53
2022-10-31T23:01:34.425Z,2.70
2022-10-31T23:04:02.279Z,2.50
2022-10-31T23:06:30.844Z,2.20
2022-10-31T23:08:59.937Z,1.30
2022-10-31T23:11:32.388Z,1.70
2022-10-31T23:14:09.984Z,2.33
2022-10-31T23:16:43.140Z,6.20
2022-10-31T23:19:12.592Z,11.13
2022-10-31T23:22:00.117Z,6.53
2022-10-31T23:24:36.732Z,6.70
2022-10-31T23:27:14.785Z,7.07
2022-10-31T23:29:47.594Z,4.30
2022-10-31T23:32:28.680Z,5.20
2022-10-31T23:35:00.903Z,8.37
2022-10-31T23:37:31.030Z,10.80
2022-10-31T23:39:58.204Z,9.73
2022-10-31T23:42:26.102Z,10.40
2022-10-31T23:44:53.218Z,4.07
2022-10-31T23:47:20.830Z,3.70
2022-10-31T23:49:48.235Z,5.10
2022-10-31T23:52:15.993Z,7.47
2022-10-31T23:54:43.393Z,9.00
2022-10-31T23:57:14.613Z,6.93
2022-10-31T23:59:41.754Z,5.30
